createdAt,value
2022-12-22T00:01:32.309Z,100537.59
2022-12-22T00:04:20.684Z,100550.88
2022-12-22T00:07:05.781Z,100556.38
2022-12-22T00:09:50.837Z,100543.09
2022-12-22T00:12:37.117Z,100528.78
2022-12-22T00:15:23.452Z,100535.81
2022-12-22T00:18:08.652Z,100540.13
2022-12-22T00:20:53.989Z,100529.28
2022-12-22T00:23:39.460Z,100525.97
2022-12-22T00:26:24.825Z,100532.25
2022-12-22T00:29:10.472Z,100523.41
2022-12-22T00:31:55.742Z,100520.50
2022-12-22T00:34:41.750Z,100513.47
2022-12-22T00:37:31.817Z,100518.84
2022-12-22T00:40:18.272Z,100512.69
2022-12-22T00:43:03.449Z,100508.16
2022-12-22T00:45:49.424Z,100512.44
2022-12-22T00:48:43.985Z,100513.41
2022-12-22T00:51:30.299Z,100504.69
2022-12-22T00:54:15.690Z,100508.16
2022-12-22T00:57:01.084Z,100502.59
2022-12-22T00:59:46.803Z,100500.09
2022-12-22T01:02:32.455Z,100494.56
2022-12-22T01:05:17.788Z,100502.69
2022-12-22T01:08:02.990Z,100499.34
2022-12-22T01:10:48.499Z,100504.50
2022-12-22T01:13:34.337Z,100500.09
2022-12-22T01:16:19.713Z,100497.59
2022-12-22T01:19:08.150Z,100488.56
2022-12-22T01:21:57.175Z,100488.38
2022-12-22T01:24:44.039Z,100471.56
2022-12-22T01:27:29.683Z,100469.47
2022-12-22T01:30:18.046Z,100468.94
2022-12-22T01:33:03.364Z,100467.03
2022-12-22T01:35:52.455Z,100465.28
2022-12-22T01:38:37.888Z,100462.78
2022-12-22T01:41:31.670Z,100469.59
2022-12-22T01:44:16.974Z,100458.84
2022-12-22T01:47:04.351Z,100459.69
2022-12-22T01:49:59.888Z,100451.44
2022-12-22T01:52:49.297Z,100450.44
2022-12-22T01:55:37.231Z,100440.00
2022-12-22T01:58:23.545Z,100441.78
2022-12-22T02:01:08.818Z,100444.31
2022-12-22T02:03:54.213Z,100422.75
2022-12-22T02:06:59.568Z,100422.41
2022-12-22T02:10:00.316Z,100419.50
2022-12-22T02:13:10.097Z,100422.66
2022-12-22T02:16:02.532Z,100415.88
2022-12-22T02:19:12.007Z,100419.47
2022-12-22T02:22:39.812Z,100411.69
2022-12-22T02:25:34.820Z,100394.97
2022-12-22T02:28:20.658Z,100389.63
2022-12-22T02:31:07.080Z,100393.69
2022-12-22T02:33:52.627Z,100385.53
2022-12-22T02:37:25.629Z,100383.88
2022-12-22T02:40:40.913Z,100371.25
2022-12-22T02:43:56.655Z,100368.44
2022-12-22T02:46:44.875Z,100359.00
2022-12-22T02:49:40.601Z,100359.03
2022-12-22T02:52:47.774Z,100352.72
2022-12-22T02:55:36.716Z,100349.09
2022-12-22T02:58:22.267Z,100342.28
2022-12-22T03:01:07.474Z,100358.56
2022-12-22T03:03:53.237Z,100357.25
2022-12-22T03:06:38.545Z,100351.69
2022-12-22T03:09:23.970Z,100359.47
2022-12-22T03:12:09.386Z,100344.50
2022-12-22T03:14:54.712Z,100350.06
2022-12-22T03:17:40.068Z,100340.09
2022-12-22T03:20:25.797Z,100348.31
2022-12-22T03:23:11.339Z,100341.22
2022-12-22T03:25:54.503Z,100341.03
2022-12-22T03:28:27.667Z,100350.72
2022-12-22T03:31:00.718Z,100344.34
2022-12-22T03:33:28.230Z,100343.59
2022-12-22T03:35:54.990Z,100332.16
2022-12-22T03:38:21.609Z,100327.38
2022-12-22T03:40:48.385Z,100319.25
2022-12-22T03:43:34.637Z,100322.34
2022-12-22T03:46:23.348Z,100314.53
2022-12-22T03:49:10.103Z,100307.41
2022-12-22T03:51:40.897Z,100302.09
2022-12-22T03:54:07.938Z,100295.41
2022-12-22T03:56:34.560Z,100292.38
2022-12-22T03:59:01.455Z,100285.19
2022-12-22T04:01:28.425Z,100289.56
2022-12-22T04:03:55.255Z,100277.19
2022-12-22T04:06:21.965Z,100280.31
2022-12-22T04:08:48.656Z,100272.00
2022-12-22T04:11:34.959Z,100271.16
2022-12-22T04:14:01.886Z,100261.28
2022-12-22T04:16:28.698Z,100256.06
2022-12-22T04:18:55.508Z,100268.34
2022-12-22T04:21:22.197Z,100259.94
2022-12-22T04:23:51.441Z,100263.34
2022-12-22T04:26:19.521Z,100255.25
2022-12-22T04:28:46.301Z,100250.53
2022-12-22T04:31:13.322Z,100266.22
2022-12-22T04:33:40.037Z,100254.84
2022-12-22T04:36:07.291Z,100246.00
2022-12-22T04:38:34.430Z,100245.28
2022-12-22T04:41:01.141Z,100250.72
2022-12-22T04:43:27.868Z,100250.50
2022-12-22T04:45:56.067Z,100251.22
2022-12-22T04:48:23.668Z,100239.75
2022-12-22T04:50:51.828Z,100246.06
2022-12-22T04:53:18.463Z,100242.38
2022-12-22T04:55:46.929Z,100238.97
2022-12-22T04:58:13.612Z,100227.41
2022-12-22T05:00:40.388Z,100222.19
2022-12-22T05:03:07.512Z,100218.28
2022-12-22T05:05:35.372Z,100211.50
2022-12-22T05:08:02.522Z,100208.66
2022-12-22T05:10:29.769Z,100204.38
2022-12-22T05:12:56.499Z,100201.59
2022-12-22T05:15:27.023Z,100198.50
2022-12-22T05:17:53.773Z,100205.41
2022-12-22T05:20:20.836Z,100203.38
2022-12-22T05:22:50.647Z,100195.41
2022-12-22T05:25:17.377Z,100193.69
2022-12-22T05:27:45.003Z,100194.81
2022-12-22T05:30:12.124Z,100187.16
2022-12-22T05:32:39.440Z,100183.97
2022-12-22T05:35:09.282Z,100177.69
2022-12-22T05:37:35.933Z,100184.44
2022-12-22T05:40:06.415Z,100182.56
2022-12-22T05:42:36.043Z,100165.53
2022-12-22T05:45:10.061Z,100166.03
2022-12-22T05:47:36.839Z,100170.41
2022-12-22T05:50:03.994Z,100157.03
2022-12-22T05:52:30.647Z,100163.19
2022-12-22T05:54:57.308Z,100146.53
2022-12-22T05:57:23.948Z,100153.16
2022-12-22T05:59:50.679Z,100145.97
2022-12-22T06:02:17.583Z,100153.88
2022-12-22T06:04:44.460Z,100140.22
2022-12-22T06:07:11.155Z,100147.84
2022-12-22T06:09:37.865Z,100137.47
2022-12-22T06:12:04.829Z,100135.22
2022-12-22T06:14:31.763Z,100137.69
2022-12-22T06:16:58.399Z,100131.19
2022-12-22T06:19:25.171Z,100125.72
2022-12-22T06:21:54.846Z,100132.13
2022-12-22T06:24:21.461Z,100130.69
2022-12-22T06:26:48.332Z,100127.91
2022-12-22T06:29:15.028Z,100123.38
2022-12-22T06:31:41.749Z,100119.44
2022-12-22T06:34:11.888Z,100112.97
2022-12-22T06:36:39.075Z,100114.41
2022-12-22T06:39:06.685Z,100111.53
2022-12-22T06:41:52.045Z,100115.59
2022-12-22T06:44:18.691Z,100115.25
2022-12-22T06:46:48.376Z,100107.09
2022-12-22T06:49:15.064Z,100095.00
2022-12-22T06:51:41.843Z,100100.56
2022-12-22T06:54:08.503Z,100099.34
2022-12-22T06:56:35.165Z,100105.66
2022-12-22T06:59:01.898Z,100100.56
2022-12-22T07:01:28.698Z,100103.75
2022-12-22T07:03:55.693Z,100099.84
2022-12-22T07:06:22.587Z,100100.75
2022-12-22T07:08:49.458Z,100084.13
2022-12-22T07:11:16.537Z,100095.56
2022-12-22T07:13:43.247Z,100093.97
2022-12-22T07:16:10.728Z,100087.94
2022-12-22T07:18:40.834Z,100092.16
2022-12-22T07:21:09.879Z,100089.81
2022-12-22T07:23:40.248Z,100095.13
2022-12-22T07:26:08.243Z,100080.72
2022-12-22T07:28:39.705Z,100079.75
2022-12-22T07:31:07.072Z,100084.16
2022-12-22T07:33:33.833Z,100076.44
2022-12-22T07:36:04.193Z,100088.66
2022-12-22T07:38:39.909Z,100081.69
2022-12-22T07:41:26.304Z,100082.22
2022-12-22T07:43:57.549Z,100077.09
2022-12-22T07:46:25.603Z,100073.94
2022-12-22T07:49:10.752Z,100072.31
2022-12-22T07:51:39.145Z,100066.06
2022-12-22T07:54:06.548Z,100058.88
2022-12-22T07:56:33.190Z,100061.69
2022-12-22T07:58:59.865Z,100059.63
2022-12-22T08:01:26.666Z,100067.78
2022-12-22T08:03:53.372Z,100052.97
2022-12-22T08:06:20.709Z,100047.28
2022-12-22T08:08:47.397Z,100045.53
2022-12-22T08:11:14.165Z,100050.00
2022-12-22T08:13:42.062Z,100037.97
2022-12-22T08:16:10.739Z,100046.06
2022-12-22T08:18:38.099Z,100035.44
2022-12-22T08:21:06.314Z,100043.47
2022-12-22T08:23:33.166Z,100041.63
2022-12-22T08:26:05.351Z,100029.78
2022-12-22T08:28:34.662Z,100035.09
2022-12-22T08:31:02.203Z,100038.56
2022-12-22T08:33:28.828Z,100030.19
2022-12-22T08:35:57.943Z,100026.47
2022-12-22T08:38:27.874Z,100027.66
2022-12-22T08:40:54.560Z,100027.34
2022-12-22T08:43:21.921Z,100025.38
2022-12-22T08:45:48.544Z,100016.56
2022-12-22T08:48:15.450Z,100016.91
2022-12-22T08:50:42.207Z,100012.88
2022-12-22T08:53:29.725Z,100009.97
2022-12-22T08:55:56.464Z,100007.88
2022-12-22T08:58:23.097Z,100008.47
2022-12-22T09:00:49.732Z,100002.53
2022-12-22T09:03:16.502Z,99997.22
2022-12-22T09:05:43.245Z,99991.47
2022-12-22T09:08:09.869Z,99994.88
2022-12-22T09:10:36.557Z,99995.03
2022-12-22T09:13:03.328Z,99993.13
2022-12-22T09:15:29.978Z,99994.44
2022-12-22T09:17:56.628Z,99986.47
2022-12-22T09:20:23.271Z,99986.25
2022-12-22T09:22:49.864Z,99982.06
2022-12-22T09:25:18.336Z,99985.97
2022-12-22T09:27:44.997Z,99982.13
2022-12-22T09:30:11.898Z,99975.97
2022-12-22T09:32:38.694Z,99979.78
2022-12-22T09:35:05.530Z,99970.63
2022-12-22T09:37:32.196Z,99971.97
2022-12-22T09:39:59.008Z,99973.81
2022-12-22T09:42:25.665Z,99960.84
2022-12-22T09:44:52.475Z,99959.75
2022-12-22T09:47:39.616Z,99953.97
2022-12-22T09:50:08.993Z,99948.78
2022-12-22T09:52:35.556Z,99950.09
2022-12-22T09:55:03.057Z,99954.91
2022-12-22T09:57:31.840Z,99954.22
2022-12-22T10:00:02.745Z,99957.44
2022-12-22T10:02:58.511Z,99954.19
2022-12-22T10:05:38.635Z,99949.09
2022-12-22T10:08:14.727Z,99949.66
2022-12-22T10:10:41.563Z,99946.44
2022-12-22T10:13:16.956Z,99944.03
2022-12-22T10:15:44.041Z,99943.25
2022-12-22T10:18:15.938Z,99937.16
2022-12-22T10:20:46.937Z,99935.88
2022-12-22T10:23:28.352Z,99933.16
2022-12-22T10:28:47.724Z,99927.59
2022-12-22T10:31:23.799Z,99927.09
2022-12-22T10:33:52.896Z,99920.38
2022-12-22T10:36:25.719Z,99910.34
2022-12-22T10:39:01.087Z,99905.03
2022-12-22T10:41:35.053Z,99911.28
2022-12-22T10:44:05.395Z,99909.16
2022-12-22T10:46:35.819Z,99900.25
2022-12-22T10:49:22.041Z,99910.00
2022-12-22T10:51:54.995Z,99902.75
2022-12-22T10:54:33.587Z,99906.06
2022-12-22T10:57:04.240Z,99902.66
2022-12-22T10:59:31.869Z,99901.63
2022-12-22T11:02:21.870Z,99900.44
2022-12-22T11:04:49.666Z,99895.97
2022-12-22T11:07:16.394Z,99890.28
2022-12-22T11:09:43.259Z,99891.94
2022-12-22T11:12:30.295Z,99894.03
2022-12-22T11:15:04.970Z,99881.94
2022-12-22T11:17:48.781Z,99888.16
2022-12-22T11:20:27.833Z,99876.09
2022-12-22T11:23:02.143Z,99874.06
2022-12-22T11:25:49.756Z,99878.81
2022-12-22T11:28:31.416Z,99872.81
2022-12-22T11:31:17.791Z,99876.19
2022-12-22T11:34:05.102Z,99867.16
2022-12-22T11:36:43.209Z,99861.25
2022-12-22T11:39:18.609Z,99870.56
2022-12-22T11:41:59.404Z,99869.47
2022-12-22T11:44:41.301Z,99863.56
2022-12-22T11:47:25.604Z,99859.91
2022-12-22T11:51:01.104Z,99855.78
2022-12-22T11:53:48.444Z,99852.34
2022-12-22T11:56:38.983Z,99850.28
2022-12-22T11:59:34.866Z,99856.72
2022-12-22T12:02:30.170Z,99856.06
2022-12-22T12:05:34.497Z,99853.97
2022-12-22T12:08:10.318Z,99846.28
2022-12-22T12:10:49.990Z,99842.59
2022-12-22T12:13:27.454Z,99848.59
2022-12-22T12:16:10.174Z,99848.88
2022-12-22T12:18:54.045Z,99852.47
2022-12-22T12:21:36.814Z,99857.50
2022-12-22T12:24:42.865Z,99853.97
2022-12-22T12:27:47.871Z,99851.19
2022-12-22T12:33:24.344Z,99852.78
2022-12-22T12:36:03.004Z,99845.47
2022-12-22T12:41:40.107Z,99852.25
2022-12-22T12:44:16.044Z,99838.59
2022-12-22T12:46:51.833Z,99854.19
2022-12-22T12:49:52.008Z,99849.53
2022-12-22T12:52:18.612Z,99847.00
2022-12-22T12:54:47.425Z,99845.28
2022-12-22T12:57:28.479Z,99843.28
2022-12-22T12:59:59.748Z,99849.34
2022-12-22T13:02:37.161Z,99840.41
2022-12-22T13:05:29.923Z,99852.78
2022-12-22T13:08:14.637Z,99853.88
2022-12-22T13:11:10.174Z,99856.53
2022-12-22T13:13:36.853Z,99863.03
2022-12-22T13:16:03.491Z,99866.56
2022-12-22T13:18:33.198Z,99868.03
2022-12-22T13:24:25.174Z,99873.63
2022-12-22T13:26:55.316Z,99884.72
2022-12-22T13:29:21.979Z,99881.13
2022-12-22T13:31:52.228Z,99883.53
2022-12-22T13:34:57.336Z,99890.50
2022-12-22T13:37:27.856Z,99883.53
2022-12-22T13:40:07.202Z,99879.34
2022-12-22T13:42:46.364Z,99897.03
2022-12-22T13:45:17.907Z,99895.81
2022-12-22T13:47:46.275Z,99900.63
2022-12-22T13:50:23.425Z,99903.16
2022-12-22T13:52:51.241Z,99901.47
2022-12-22T13:55:21.175Z,99908.38
2022-12-22T13:57:50.940Z,99904.88
2022-12-22T14:00:23.472Z,99906.88
2022-12-22T14:02:50.488Z,99911.31
2022-12-22T14:05:18.052Z,99909.06
2022-12-22T14:08:05.103Z,99914.59
2022-12-22T14:10:43.560Z,99921.69
2022-12-22T14:13:18.868Z,99931.47
2022-12-22T14:15:59.606Z,99931.75
2022-12-22T14:18:27.147Z,99940.97
2022-12-22T14:20:54.340Z,99933.81
2022-12-22T14:23:27.403Z,99946.97
2022-12-22T14:25:55.766Z,99947.09
2022-12-22T14:28:28.128Z,99953.75
2022-12-22T14:30:58.846Z,99952.75
2022-12-22T14:33:28.439Z,99955.41
2022-12-22T14:36:15.555Z,99959.56
2022-12-22T14:38:50.072Z,99965.53
2022-12-22T14:41:42.131Z,99972.06
2022-12-22T14:44:16.452Z,99974.34
2022-12-22T14:46:44.651Z,99979.31
2022-12-22T14:49:19.272Z,99974.53
2022-12-22T14:52:00.947Z,99979.03
2022-12-22T14:54:28.687Z,100000.13
2022-12-22T14:57:08.460Z,99994.25
2022-12-22T14:59:39.913Z,100002.81
2022-12-22T15:02:22.667Z,100010.81
2022-12-22T15:04:49.331Z,100012.59
2022-12-22T15:07:54.279Z,100018.41
2022-12-22T15:10:15.980Z,100014.75
2022-12-22T15:12:44.063Z,100025.97
2022-12-22T15:15:19.484Z,100027.41
2022-12-22T15:17:51.335Z,100028.06
2022-12-22T15:20:21.131Z,100036.09
2022-12-22T15:22:48.115Z,100032.56
2022-12-22T15:25:20.011Z,100041.34
2022-12-22T15:27:46.958Z,100048.53
2022-12-22T15:30:16.876Z,100050.41
2022-12-22T15:32:44.125Z,100060.28
2022-12-22T15:35:20.031Z,100058.75
2022-12-22T15:37:46.895Z,100076.75
2022-12-22T15:40:16.345Z,100070.38
2022-12-22T15:42:43.121Z,100078.31
2022-12-22T15:45:10.227Z,100075.31
2022-12-22T15:47:37.157Z,100079.00
2022-12-22T15:50:04.082Z,100078.31
2022-12-22T15:52:31.837Z,100076.28
2022-12-22T15:54:58.559Z,100079.16
2022-12-22T15:57:25.231Z,100088.69
2022-12-22T15:59:51.858Z,100103.25
2022-12-22T16:02:19.370Z,100113.03
2022-12-22T16:04:46.196Z,100129.28
2022-12-22T16:07:12.886Z,100124.38
2022-12-22T16:09:44.567Z,100130.53
2022-12-22T16:12:17.321Z,100126.63
2022-12-22T16:14:50.170Z,100131.84
2022-12-22T16:17:23.130Z,100139.25
2022-12-22T16:19:49.752Z,100133.66
2022-12-22T16:22:19.697Z,100137.41
2022-12-22T16:24:47.905Z,100139.84
2022-12-22T16:27:14.984Z,100137.53
2022-12-22T16:29:44.563Z,100132.91
2022-12-22T16:32:17.910Z,100131.75
2022-12-22T16:34:45.043Z,100141.13
2022-12-22T16:37:11.680Z,100144.34
2022-12-22T16:39:38.374Z,100147.53
2022-12-22T16:42:05.746Z,100161.75
2022-12-22T16:47:18.050Z,100161.19
2022-12-22T16:49:46.601Z,100174.53
2022-12-22T16:52:21.655Z,100164.66
2022-12-22T16:54:52.572Z,100168.03
2022-12-22T16:57:19.576Z,100166.31
2022-12-22T16:59:46.221Z,100171.31
2022-12-22T17:02:29.214Z,100176.34
2022-12-22T17:04:58.251Z,100177.19
2022-12-22T17:07:24.920Z,100188.72
2022-12-22T17:09:54.406Z,100188.16
2022-12-22T17:12:33.134Z,100186.38
2022-12-22T17:15:00.477Z,100190.22
2022-12-22T17:17:34.045Z,100193.31
2022-12-22T17:20:02.238Z,100194.13
2022-12-22T17:22:31.102Z,100204.13
2022-12-22T17:25:02.570Z,100195.38
2022-12-22T17:27:31.383Z,100193.72
2022-12-22T17:30:00.459Z,100207.31
2022-12-22T17:32:27.110Z,100205.69
2022-12-22T17:34:53.717Z,100212.72
2022-12-22T17:37:22.699Z,100212.97
2022-12-22T17:40:01.104Z,100217.84
2022-12-22T17:42:27.974Z,100212.47
2022-12-22T17:44:54.747Z,100213.91
2022-12-22T17:47:29.059Z,100215.84
2022-12-22T17:50:06.030Z,100215.88
2022-12-22T17:52:32.731Z,100220.78
2022-12-22T17:54:59.465Z,100220.13
2022-12-22T17:57:31.123Z,100227.03
2022-12-22T18:00:00.945Z,100226.28
2022-12-22T18:02:27.900Z,100222.91
2022-12-22T18:04:54.807Z,100230.75
2022-12-22T18:07:23.420Z,100233.41
2022-12-22T18:09:57.901Z,100231.69
2022-12-22T18:12:24.895Z,100240.09
2022-12-22T18:14:52.225Z,100240.59
2022-12-22T18:17:35.420Z,100251.94
2022-12-22T18:20:06.308Z,100249.09
2022-12-22T18:22:33.019Z,100254.06
2022-12-22T18:25:00.482Z,100256.91
2022-12-22T18:27:27.129Z,100243.56
2022-12-22T18:29:53.785Z,100250.44
2022-12-22T18:32:27.038Z,100246.50
2022-12-22T18:34:54.331Z,100242.22
2022-12-22T18:37:21.054Z,100242.13
2022-12-22T18:39:47.755Z,100247.34
2022-12-22T18:42:23.272Z,100245.56
2022-12-22T18:44:53.457Z,100237.81
2022-12-22T18:47:20.259Z,100241.91
2022-12-22T18:49:47.059Z,100241.53
2022-12-22T18:52:23.334Z,100239.00
2022-12-22T18:54:50.012Z,100246.97
2022-12-22T18:57:19.614Z,100229.31
2022-12-22T18:59:49.358Z,100234.13
2022-12-22T19:02:23.568Z,100231.56
2022-12-22T19:04:50.869Z,100236.44
2022-12-22T19:07:20.234Z,100229.47
2022-12-22T19:09:47.642Z,100237.34
2022-12-22T19:12:16.750Z,100237.34
2022-12-22T19:14:45.420Z,100245.91
2022-12-22T19:17:14.593Z,100241.38
2022-12-22T19:19:41.310Z,100240.91
2022-12-22T19:22:12.672Z,100230.78
2022-12-22T19:24:40.266Z,100242.47
2022-12-22T19:27:17.106Z,100237.47
2022-12-22T19:29:44.154Z,100240.13
2022-12-22T19:32:23.557Z,100236.22
2022-12-22T19:34:50.637Z,100242.59
2022-12-22T19:37:17.338Z,100244.47
2022-12-22T19:39:44.416Z,100247.34
2022-12-22T19:42:16.335Z,100246.50
2022-12-22T19:44:46.362Z,100245.00
2022-12-22T19:47:29.587Z,100243.88
2022-12-22T19:49:56.644Z,100236.06
2022-12-22T19:52:23.321Z,100237.13
2022-12-22T19:54:49.942Z,100229.16
2022-12-22T19:57:20.823Z,100233.06
2022-12-22T19:59:49.343Z,100225.94
2022-12-22T20:02:22.360Z,100234.91
2022-12-22T20:04:49.777Z,100233.41
2022-12-22T20:07:17.395Z,100237.91
2022-12-22T20:09:44.070Z,100241.59
2022-12-22T20:12:36.035Z,100238.53
2022-12-22T20:15:13.537Z,100233.03
2022-12-22T20:17:40.197Z,100227.00
2022-12-22T20:20:07.687Z,100226.44
2022-12-22T20:22:34.452Z,100232.88
2022-12-22T20:25:01.187Z,100231.78
2022-12-22T20:27:32.414Z,100230.31
2022-12-22T20:30:02.043Z,100233.84
2022-12-22T20:32:29.009Z,100236.44
2022-12-22T20:34:56.301Z,100233.91
2022-12-22T20:37:23.005Z,100231.34
2022-12-22T20:39:49.947Z,100234.78
2022-12-22T20:42:21.377Z,100225.16
2022-12-22T20:45:01.633Z,100231.53
2022-12-22T20:47:32.242Z,100229.81
2022-12-22T20:49:59.407Z,100230.88
2022-12-22T20:52:26.517Z,100229.72
2022-12-22T20:54:53.321Z,100231.66
2022-12-22T20:57:21.729Z,100231.69
2022-12-22T20:59:55.681Z,100229.00
2022-12-22T21:02:29.876Z,100232.50
2022-12-22T21:04:57.081Z,100232.56
2022-12-22T21:07:23.698Z,100232.47
2022-12-22T21:09:50.403Z,100237.88
2022-12-22T21:12:17.348Z,100230.19
2022-12-22T21:14:44.914Z,100235.19
2022-12-22T21:17:16.884Z,100231.81
2022-12-22T21:19:43.692Z,100228.53
2022-12-22T21:22:10.500Z,100233.63
2022-12-22T21:24:37.331Z,100229.56
2022-12-22T21:27:05.242Z,100222.13
2022-12-22T21:29:32.267Z,100231.88
2022-12-22T21:31:59.012Z,100229.28
2022-12-22T21:34:25.608Z,100230.25
2022-12-22T21:36:57.765Z,100230.19
2022-12-22T21:39:39.485Z,100226.44
2022-12-22T21:42:06.631Z,100227.75
2022-12-22T21:44:34.791Z,100232.13
2022-12-22T21:47:02.158Z,100233.25
2022-12-22T21:49:31.027Z,100230.19
2022-12-22T21:51:57.825Z,100231.47
2022-12-22T21:54:25.810Z,100232.09
2022-12-22T21:56:54.087Z,100231.44
2022-12-22T21:59:23.878Z,100227.63
2022-12-22T22:01:53.088Z,100227.88
2022-12-22T22:04:20.308Z,100227.00
2022-12-22T22:06:46.927Z,100221.59
2022-12-22T22:09:13.679Z,100216.66
2022-12-22T22:11:59.495Z,100216.28
2022-12-22T22:14:26.902Z,100204.94
2022-12-22T22:16:53.739Z,100208.97
2022-12-22T22:19:20.329Z,100195.84
2022-12-22T22:21:47.582Z,100201.91
2022-12-22T22:24:14.374Z,100197.69
2022-12-22T22:26:41.039Z,100202.75
2022-12-22T22:29:07.706Z,100205.59
2022-12-22T22:31:34.424Z,100200.34
2022-12-22T22:34:01.091Z,100204.69
2022-12-22T22:36:27.868Z,100205.34
2022-12-22T22:38:54.683Z,100199.09
2022-12-22T22:41:21.365Z,100201.25
2022-12-22T22:43:48.164Z,100188.59
2022-12-22T22:46:14.839Z,100185.06
2022-12-22T22:48:41.527Z,100185.94
2022-12-22T22:51:10.277Z,100184.19
2022-12-22T22:53:36.926Z,100177.94
2022-12-22T22:56:03.711Z,100169.97
2022-12-22T22:58:30.416Z,100174.53
2022-12-22T23:01:04.390Z,100172.31
2022-12-22T23:03:31.208Z,100175.19
2022-12-22T23:06:04.943Z,100172.25
2022-12-22T23:08:33.461Z,100177.72
2022-12-22T23:11:01.357Z,100180.75
2022-12-22T23:13:28.472Z,100170.19
2022-12-22T23:16:00.458Z,100164.81
2022-12-22T23:18:28.156Z,100170.09
2022-12-22T23:20:57.511Z,100167.69
2022-12-22T23:23:24.260Z,100158.69
2022-12-22T23:25:51.357Z,100156.69
2022-12-22T23:28:18.663Z,100158.97
2022-12-22T23:30:48.473Z,100156.28
2022-12-22T23:33:15.305Z,100150.97
2022-12-22T23:35:42.799Z,100144.91
2022-12-22T23:38:09.897Z,100142.75
2022-12-22T23:40:55.739Z,100149.19
2022-12-22T23:43:22.518Z,100146.38
2022-12-22T23:45:49.440Z,100131.38
2022-12-22T23:48:16.208Z,100134.75
2022-12-22T23:50:45.947Z,100130.88
2022-12-22T23:53:16.167Z,100123.69
2022-12-22T23:55:44.729Z,100114.22
2022-12-22T23:58:15.032Z,100119.19
